Flight Track Log - Related Links

Times and Time Zones

All times are in EDT time to prevent confusion due to time zone crossing. See the AWE710 flight status page for this flight to view local times or setup timezone preferences in your user account.

Time Position Orientation Groundspeed Altitude Reporting Facility
EDT Latitude Longitude Course Direction KTS MPH feet Rate Location/Type
Mon 07:09:08 PM 39.8711 -75.2119 86° East 168 193 700  Level FlightAware ADS-B
Mon 07:09:14 PM 39.8709 -75.2059 92° East 168 193 1,000 2,625 Climbing FlightAware ADS-B
Mon 07:09:24 PM 39.8701 -75.1949 95° East 175 201 1,400 1,615 Climbing FlightAware ADS-B
Mon 07:09:40 PM 39.8677 -75.1781 101° East 199 229 1,700 1,385 Climbing FlightAware ADS-B
Mon 07:09:50 PM 39.8658 -75.1652 101° East 210 242 2,000 2,160 Climbing FlightAware ADS-B
Mon 07:10:05 PM 39.8625 -75.1464 103° East 219 252 2,600 2,063 Climbing FlightAware ADS-B
Mon 07:10:22 PM 39.8582 -75.1237 104° East 240 276 3,100 1,818 Climbing FlightAware ADS-B
Mon 07:10:38 PM 39.8539 -75.1010 104° East 256 295 3,600 2,129 Climbing FlightAware ADS-B
Mon 07:10:53 PM 39.8493 -75.0775 104° East 270 311 4,200 3,000 Climbing FlightAware ADS-B
Mon 07:11:16 PM 39.8422 -75.0411 104° East 271 312 5,500 3,077 Climbing FlightAware ADS-B
Mon 07:11:32 PM 39.8376 -75.0152 103° East 282 325 6,200 2,727 Climbing FlightAware ADS-B
Mon 07:11:49 PM 39.8325 -74.9872 103° East 287 330 7,000 3,273 Climbing FlightAware ADS-B
Mon 07:12:05 PM 39.8273 -74.9608 104° East 286 329 8,000 3,273 Climbing FlightAware ADS-B
Mon 07:12:22 PM 39.8222 -74.9320 103° East 290 334 8,800 2,625 Climbing FlightAware ADS-B
Mon 07:12:37 PM 39.8175 -74.9047 103° East 303 349 9,400 2,200 Climbing FlightAware ADS-B
Mon 07:12:52 PM 39.8134 -74.8770 101° East 314 361 9,900 1,607 Climbing FlightAware ADS-B
Mon 07:13:33 PM 39.8026 -74.7972 100° East 356 410 10,900 1,976 Climbing FlightAware ADS-B
Mon 07:14:17 PM 39.7900 -74.7010 100° East 384 442 12,700 2,441 Climbing FlightAware ADS-B
Mon 07:14:32 PM 39.7916 -74.6654 87° East 377 434 13,300 2,571 Climbing FlightAware ADS-B
Mon 07:14:38 PM 39.7930 -74.6492 84° East 398 458 13,600 2,108 Climbing FlightAware ADS-B
Mon 07:15:09 PM 39.8002 -74.5740 83° East 421 484 14,600 2,476 Climbing FlightAware ADS-B
Mon 07:15:41 PM 39.8074 -74.4932 83° East 429 494 16,200 3,150 Climbing FlightAware ADS-B
Mon 07:15:49 PM 39.8103 -74.4714 80° East 424 488 16,700 3,231 Climbing FlightAware ADS-B
Mon 07:16:20 PM 39.8256 -74.3953 75° East 427 491 18,300 2,727 Climbing FlightAware ADS-B
Mon 07:16:55 PM 39.8438 -74.3079 75° East 438 504 19,700 2,237 Climbing FlightAware ADS-B
Mon 07:17:19 PM 39.8562 -74.2462 75° East 450 518 20,500 2,082 Climbing FlightAware ADS-B
Mon 07:17:44 PM 39.8589 -74.1768 87° East 464 534 21,400 2,066 Climbing FlightAware ADS-B
Mon 07:18:20 PM 39.8632 -74.0778 87° East 471 542 22,600 1,315 Climbing FlightAware ADS-B
Mon 07:18:57 PM 39.8697 -73.9720 85° East 480 552 23,000 348 Climbing FlightAware ADS-B
Mon 07:19:29 PM 39.8784 -73.8789 83° East 471 542 23,000  Level FlightAware ADS-B
Mon 07:19:48 PM 39.8889 -73.8297 74° East 464 534 23,000  Level FlightAware ADS-B
Mon 07:20:07 PM 39.9035 -73.7813 69° East 458 527 23,000 720 Level FlightAware ADS-B
Mon 07:20:38 PM 39.9341 -73.7027 63° Northeast 459 528 23,600 1,754 Climbing FlightAware ADS-B
Mon 07:21:12 PM 39.9658 -73.6204 63° Northeast 462 532 24,900 2,167 Climbing FlightAware ADS-B
Mon 07:21:50 PM 40.0028 -73.5248 63° Northeast 468 539 26,200 2,028 Climbing FlightAware ADS-B
Mon 07:22:23 PM 40.0354 -73.4407 63° Northeast 473 544 27,300 1,875 Climbing FlightAware ADS-B
Mon 07:22:54 PM 40.0659 -73.3612 63° Northeast 479 551 28,200 1,969 Climbing FlightAware ADS-B
Mon 07:23:27 PM 40.0989 -73.2756 63° Northeast 479 551 29,400 2,143 Climbing FlightAware ADS-B
Mon 07:24:04 PM 40.1351 -73.1818 63° Northeast 475 547 30,700 1,917 Climbing FlightAware ADS-B
Mon 07:24:39 PM 40.1698 -73.0919 63° Northeast 479 551 31,700 1,636 Climbing FlightAware ADS-B
Mon 07:25:10 PM 40.2005 -73.0119 63° Northeast 482 555 32,500 1,406 Climbing FlightAware ADS-B
Mon 07:25:43 PM 40.2342 -72.9238 63° Northeast 488 562 33,200 1,333 Climbing FlightAware ADS-B
Mon 07:26:13 PM 40.2647 -72.8437 63° Northeast 489 563 33,900 727 Climbing FlightAware ADS-B
Mon 07:26:49 PM 40.3014 -72.7473 63° Northeast 498 573 34,000 348 Climbing FlightAware ADS-B
Mon 07:27:22 PM 40.3342 -72.6603 64° Northeast 497 572 34,300 1,200 Climbing FlightAware ADS-B
Mon 07:27:54 PM 40.3670 -72.5735 64° Northeast 489 563 35,300 1,750 Climbing FlightAware ADS-B
Mon 07:28:34 PM 40.4060 -72.4703 64° Northeast 485 558 36,400 1,378 Climbing FlightAware ADS-B
Mon 07:29:08 PM 40.4400 -72.3802 64° Northeast 484 557 37,000 500 Climbing FlightAware ADS-B
Mon 07:29:46 PM 40.4777 -72.2794 64° Northeast 489 563 37,000  Level FlightAware ADS-B
Mon 07:30:16 PM 40.5081 -72.1975 64° Northeast 491 565 37,000  Level FlightAware ADS-B
Mon 07:30:54 PM 40.5450 -72.0977 64° Northeast 490 564 37,000  Level FlightAware ADS-B
Mon 07:31:24 PM 40.5748 -72.0173 64° Northeast 485 558 37,000  Level FlightAware ADS-B
Mon 07:31:55 PM 40.6044 -71.9363 64° Northeast 483 556 37,000  Level FlightAware ADS-B
Mon 07:32:26 PM 40.6348 -71.8535 64° Northeast 481 554 37,000  Level FlightAware ADS-B
Mon 07:33:03 PM 40.6699 -71.7572 64° Northeast 480 552 37,000  Level FlightAware ADS-B
Mon 07:33:42 PM 40.7076 -71.6534 64° Northeast 480 552 37,000  Level FlightAware ADS-B
Mon 07:34:12 PM 40.7330 -71.5820 65° Northeast 477 549 37,000  Level FlightAware ADS-B
Mon 07:34:52 PM 40.7710 -71.4770 64° Northeast 476 548 37,000  Level FlightAware ADS-B
Mon 07:35:37 PM 40.8150 -71.3560 64° Northeast 474 545 37,000  Level FlightAware ADS-B
Mon 07:36:17 PM 40.8520 -71.2500 65° Northeast 473 544 37,000  Level FlightAware ADS-B
Mon 07:37:02 PM 40.8940 -71.1350 64° Northeast 474 545 37,000  Level FlightAware ADS-B
Mon 07:37:37 PM 40.9220 -71.0550 65° Northeast 470 541 37,000  Level FlightAware ADS-B
Mon 07:38:22 PM 40.9640 -70.9380 65° Northeast 471 542 37,000  Level FlightAware ADS-B
Mon 07:39:07 PM 41.0060 -70.8160 65° Northeast 471 542 37,000  Level FlightAware ADS-B
Mon 07:39:47 PM 41.0440 -70.7090 65° Northeast 471 542 37,000  Level FlightAware ADS-B
Mon 07:40:32 PM 41.0850 -70.5920 65° Northeast 474 545 37,000  Level FlightAware ADS-B
Mon 07:41:12 PM 41.1210 -70.4890 65° Northeast 471 542 37,000  Level FlightAware ADS-B
Mon 07:42:07 PM 41.1700 -70.3490 65° Northeast 473 544 37,000  Level FlightAware ADS-B
Mon 07:43:02 PM 41.2230 -70.1970 65° Northeast 471 542 37,000  Level FlightAware ADS-B
Mon 07:43:47 PM 41.2620 -70.0820 66° East 470 541 37,000  Level FlightAware ADS-B
Mon 07:44:22 PM 41.2960 -69.9970 62° Northeast 463 533 37,000  Level FlightAware ADS-B
Mon 07:45:07 PM 41.3370 -69.8950 62° Northeast 463 533 37,000  Level FlightAware ADS-B
Mon 07:45:52 PM 41.4000 -69.7720 56° Northeast 460 529 37,000  Level FlightAware ADS-B
Mon 07:46:32 PM 41.4430 -69.6810 58° Northeast 459 528 37,000  Level FlightAware ADS-B
Mon 07:47:12 PM 41.4860 -69.5880 58° Northeast 456 525 37,000  Level FlightAware ADS-B
Mon 07:47:57 PM 41.5350 -69.4810 59° Northeast 451 519 37,000  Level FlightAware ADS-B
Mon 07:48:52 PM 41.5940 -69.3520 59° Northeast 447 514 37,000  Level FlightAware ADS-B
Mon 07:49:32 PM 41.6300 -69.2710 59° Northeast 447 514 37,000  Level FlightAware ADS-B
Mon 07:50:17 PM 41.6870 -69.1480 58° Northeast 444 511 37,000  Level FlightAware ADS-B
Mon 07:51:02 PM 41.7380 -69.0350 59° Northeast 443 510 37,000  Level FlightAware ADS-B
Mon 07:51:42 PM 41.7770 -68.9480 59° Northeast 443 510 37,000  Level FlightAware ADS-B
Mon 07:52:22 PM 41.8190 -68.8560 58° Northeast 444 511 37,000  Level FlightAware ADS-B
Mon 07:53:32 PM 41.8980 -68.6800 59° Northeast 447 514 37,000  Level FlightAware ADS-B
Mon 07:54:47 PM 41.9780 -68.5020 59° Northeast 448 516 37,000  Level FlightAware ADS-B
Mon 07:55:57 PM 42.0520 -68.3360 59° Northeast 449 517 37,000  Level FlightAware ADS-B
Mon 07:57:12 PM 42.1340 -68.1510 59° Northeast 451 519 37,000  Level FlightAware ADS-B
Mon 07:58:27 PM 42.2160 -67.9630 59° Northeast 452 520 37,000  Level FlightAware ADS-B
Mon 07:59:12 PM 42.2630 -67.8560 59° Northeast 453 521 37,000  Level FlightAware ADS-B
Mon 07:59:47 PM 42.3000 -67.7710 60° Northeast 453 521 37,000  Level FlightAware ADS-B
Mon 08:00:32 PM 42.3430 -67.6710 60° Northeast 453 521 37,000  Level FlightAware ADS-B
Mon 08:01:12 PM 42.3780 -67.5880 60° Northeast 453 521 37,000  Level FlightAware ADS-B
Mon 08:01:52 PM 42.4140 -67.5040 60° Northeast 453 521 37,000  Level FlightAware ADS-B
Mon 08:02:42 PM 42.4580 -67.4000 60° Northeast 453 521 37,000  Level FlightAware ADS-B
Mon 08:03:22 PM 42.4940 -67.3160 60° Northeast 453 521 37,000  Level FlightAware ADS-B
Mon 08:04:02 PM 42.5300 -67.2320 60° Northeast 453 521 37,000  Level FlightAware ADS-B
Mon 08:04:42 PM 42.5650 -67.1480 60° Northeast 453 521 37,000  Level FlightAware ADS-B
Mon 08:05:22 PM 42.6010 -67.0650 59° Northeast 453 521 37,000  Level FlightAware ADS-B
Mon 08:06:12 PM 42.6450 -66.9600 60° Northeast 453 521 37,000  Level FlightAware ADS-B
Mon 08:06:52 PM 42.6810 -66.8760 60° Northeast 453 521 37,000  Level FlightAware ADS-B
Mon 08:07:37 PM 42.7590 -66.5360 73° East 479 551 37,000  Level FlightAware ADS-B
Mon 08:08:17 PM 42.7890 -66.4240 70° East 479 551 37,000  Level FlightAware ADS-B
Mon 08:09:02 PM 42.8250 -66.2940 69° East 484 557 37,000  Level FlightAware ADS-B
Mon 08:09:42 PM 42.8560 -66.1770 70° East 484 557 37,000  Level FlightAware ADS-B
Mon 08:10:22 PM 42.8860 -66.0640 70° East 484 557 37,000  Level FlightAware ADS-B
Mon 08:11:07 PM 42.9210 -65.9330 70° East 485 558 37,000  Level FlightAware ADS-B
Mon 08:12:37 PM 42.9870 -65.6870 70° East 485 558 37,000  Level FlightAware ADS-B
Mon 08:13:47 PM 43.0400 -65.4840 70° East 486 559 37,000  Level FlightAware ADS-B
Mon 08:15:02 PM 43.0970 -65.2670 70° East 488 562 37,000  Level FlightAware ADS-B
Mon 08:16:12 PM 43.1510 -65.0630 70° East 490 564 37,000  Level FlightAware ADS-B
Mon 08:17:17 PM 43.2000 -64.8730 70° East 492 566 37,000  Level FlightAware ADS-B
Mon 08:18:37 PM 43.2600 -64.6390 71° East 493 567 37,000  Level FlightAware ADS-B
Mon 08:19:57 PM 43.3180 -64.4110 71° East 493 567 37,000  Level FlightAware ADS-B
Mon 08:20:42 PM 43.3500 -64.2880 70° East 493 567 37,000  Level FlightAware ADS-B
Mon 08:21:22 PM 43.3770 -64.1880 70° East 493 567 37,000  Level FlightAware ADS-B
Mon 08:22:02 PM 43.4030 -64.0880 70° East 493 567 37,000  Level FlightAware ADS-B
Mon 08:22:42 PM 43.4300 -63.9880 70° East 493 567 37,000  Level FlightAware ADS-B
Mon 08:23:22 PM 43.4560 -63.8870 70° East 493 567 37,000  Level FlightAware ADS-B
Mon 08:24:12 PM 43.4890 -63.7620 70° East 493 567 37,000  Level FlightAware ADS-B
Mon 08:24:52 PM 43.5160 -63.6610 70° East 493 567 37,000  Level FlightAware ADS-B
Mon 08:25:32 PM 43.5420 -63.5610 70° East 493 567 37,000  Level FlightAware ADS-B
Mon 08:26:12 PM 43.5690 -63.4600 70° East 493 567 37,000  Level FlightAware ADS-B
Mon 08:26:52 PM 43.5950 -63.3590 70° East 493 567 37,000  Level FlightAware ADS-B
Mon 08:27:32 PM 43.6220 -63.2590 70° East 493 567 37,000  Level FlightAware ADS-B
Mon 08:28:22 PM 43.6550 -63.1330 70° East 493 567 37,000  Level FlightAware ADS-B
Mon 08:29:02 PM 43.6810 -63.0320 70° East 493 567 37,000  Level FlightAware ADS-B
Mon 08:29:42 PM 43.7080 -62.9310 70° East 493 567 37,000  Level FlightAware ADS-B
Mon 08:30:33 PM 43.7667 -62.5333 70° East 470 541 37,000  Level Gander Center
Mon 08:31:33 PM 43.8000 -62.3500 76° East 480 552 37,000  Level Gander Center
Mon 08:32:33 PM 43.8333 -62.1667 76° East 480 552 37,000  Level Gander Center
Mon 08:33:33 PM 43.8833 -62.0000 67° East 480 552 37,000  Level Gander Center
Mon 08:34:46 PM 43.9333 -61.7667 73° East 480 552 37,000  Level Moncton Center
Mon 08:35:46 PM 43.9667 -61.6167 73° East 480 552 37,000  Level Moncton Center
Mon 08:36:46 PM 44.0167 -61.4167 71° East 490 564 37,000  Level Moncton Center
Mon 08:42:42 PM 44.2500 -60.3720 71° East 493 567 37,000  Level FlightAware ADS-B
Mon 08:43:32 PM 44.2820 -60.2180 74° East 494 568 37,000  Level FlightAware ADS-B
Mon 08:44:12 PM 44.3060 -60.1000 74° East 494 568 37,000  Level FlightAware ADS-B
Mon 08:44:57 PM 44.3360 -59.9560 74° East 494 568 37,000  Level FlightAware ADS-B
Mon 08:45:37 PM 44.3610 -59.8320 74° East 494 568 37,000  Level FlightAware ADS-B
Mon 08:46:17 PM 44.3860 -59.7090 74° East 493 567 37,000  Level FlightAware ADS-B
Mon 08:47:02 PM 44.4130 -59.5760 74° East 492 566 37,000  Level FlightAware ADS-B
Mon 08:47:42 PM 44.4370 -59.4540 75° East 492 566 37,000  Level FlightAware ADS-B
Mon 08:48:27 PM 44.4660 -59.3120 74° East 491 565 37,000  Level FlightAware ADS-B
Mon 08:49:07 PM 44.4900 -59.1890 75° East 490 564 37,000  Level FlightAware ADS-B
Mon 08:49:52 PM 44.5170 -59.0540 74° East 491 565 37,000  Level FlightAware ADS-B
Mon 08:50:32 PM 44.5400 -58.9320 75° East 491 565 37,000  Level FlightAware ADS-B
Mon 08:51:12 PM 44.5640 -58.8100 75° East 491 565 37,000  Level FlightAware ADS-B
Mon 08:51:57 PM 44.5910 -58.6680 75° East 490 564 37,000  Level FlightAware ADS-B
Mon 08:52:37 PM 44.6150 -58.5450 75° East 489 563 37,000  Level FlightAware ADS-B
Mon 08:53:17 PM 44.6370 -58.4280 75° East 490 564 37,000  Level FlightAware ADS-B
Mon 08:54:02 PM 44.6650 -58.2850 75° East 490 564 37,000  Level FlightAware ADS-B
Mon 08:54:42 PM 44.6880 -58.1620 75° East 489 563 37,000  Level FlightAware ADS-B
Mon 08:55:27 PM 44.7120 -58.0290 76° East 487 560 37,000  Level FlightAware ADS-B
Mon 08:56:07 PM 44.7350 -57.9050 75° East 487 560 37,000  Level FlightAware ADS-B
Mon 08:56:47 PM 44.7570 -57.7880 75° East 487 560 37,000  Level FlightAware ADS-B
Mon 08:57:27 PM 44.7800 -57.6620 76° East 486 559 37,000  Level FlightAware ADS-B
Mon 08:58:12 PM 44.8060 -57.5210 75° East 486 559 37,000  Level FlightAware ADS-B
Mon 08:58:52 PM 44.8270 -57.4030 76° East 487 560 37,000  Level FlightAware ADS-B
Mon 08:59:37 PM 44.8530 -57.2600 76° East 487 560 37,000  Level FlightAware ADS-B
Mon 09:00:17 PM 44.8730 -57.1450 76° East 488 562 37,000  Level FlightAware ADS-B
Mon 09:01:02 PM 44.8990 -57.0020 76° East 489 563 37,000  Level FlightAware ADS-B
Mon 09:01:37 PM 44.9180 -56.8950 76° East 489 563 37,000  Level FlightAware ADS-B
Mon 09:02:22 PM 44.9420 -56.7550 76° East 491 565 37,000  Level FlightAware ADS-B
Mon 09:03:02 PM 44.9630 -56.6320 76° East 490 564 37,000  Level FlightAware ADS-B
Mon 09:03:47 PM 44.9850 -56.5070 76° East 490 564 37,000  Level FlightAware ADS-B
Mon 09:04:27 PM 45.0040 -56.4010 76° East 490 564 37,000  Level FlightAware ADS-B
Mon 09:05:07 PM 45.0230 -56.2960 76° East 490 564 37,000  Level FlightAware ADS-B
Mon 09:05:47 PM 45.0410 -56.1900 76° East 490 564 37,000  Level FlightAware ADS-B
Mon 09:06:37 PM 45.0640 -56.0570 76° East 490 564 37,000  Level FlightAware ADS-B
Mon 09:07:17 PM 45.0830 -55.9520 76° East 490 564 37,000  Level FlightAware ADS-B
Mon 09:07:57 PM 45.1020 -55.8460 76° East 490 564 37,000  Level FlightAware ADS-B
Mon 09:08:37 PM 45.1200 -55.7400 76° East 490 564 37,000  Level FlightAware ADS-B
Mon 09:09:17 PM 45.1390 -55.6340 76° East 490 564 37,000  Level FlightAware ADS-B
Mon 09:10:07 PM 45.1620 -55.5010 76° East 490 564 37,000  Level FlightAware ADS-B
Mon 09:10:47 PM 45.1810 -55.3950 76° East 490 564 37,000  Level FlightAware ADS-B
Mon 09:11:27 PM 45.2000 -55.2890 76° East 490 564 37,000  Level FlightAware ADS-B
Mon 09:12:27 PM 45.2720 -54.9040 75° East 482 555 37,000  Level FlightAware ADS-B
Mon 09:13:07 PM 45.2900 -54.7990 76° East 482 555 37,000  Level FlightAware ADS-B
Mon 09:13:47 PM 45.3090 -54.6950 75° East 482 555 37,000  Level FlightAware ADS-B
Mon 09:14:27 PM 45.3270 -54.5900 76° East 482 555 37,000  Level FlightAware ADS-B
Mon 09:15:12 PM 45.3590 -54.3820 78° East 483 556 37,000  Level FlightAware ADS-B
Mon 09:15:57 PM 45.3820 -54.2460 76° East 483 556 37,000  Level FlightAware ADS-B
Mon 09:16:52 PM 45.4150 -54.0890 73° East 480 552 37,000  Level FlightAware ADS-B
Mon 09:17:32 PM 45.4380 -53.9870 72° East 480 552 37,000  Level FlightAware ADS-B
Mon 09:18:17 PM 45.4760 -53.8330 71° East 478 550 37,000  Level FlightAware ADS-B
Mon 09:18:57 PM 45.5010 -53.7320 71° East 478 550 37,000  Level FlightAware ADS-B
Mon 09:19:37 PM 45.5250 -53.6300 71° East 478 550 37,000 776 Level FlightAware ADS-B
Mon 09:20:22 PM 45.5660 -53.4560 71° East 480 552 38,100 918 Climbing FlightAware ADS-B
Mon 09:21:02 PM 45.5940 -53.3450 70° East 481 554 38,300 150 Climbing FlightAware ADS-B
Mon 09:21:42 PM 45.6200 -53.2430 70° East 481 554 38,300  Level FlightAware ADS-B
Mon 09:22:22 PM 45.6460 -53.1420 70° East 481 554 38,300  Level FlightAware ADS-B
Mon 09:23:02 PM 45.6710 -53.0400 71° East 481 554 38,300  Level FlightAware ADS-B
Mon 09:23:52 PM 45.7040 -52.9130 70° East 481 554 38,300  Level FlightAware ADS-B
Mon 09:24:32 PM 45.7300 -52.8110 70° East 481 554 38,300  Level FlightAware ADS-B
Mon 09:25:12 PM 45.7560 -52.7090 70° East 481 554 38,300  Level FlightAware ADS-B
Mon 09:25:52 PM 45.7810 -52.6070 71° East 481 554 38,300  Level FlightAware ADS-B
Mon 09:26:32 PM 45.8070 -52.5050 70° East 481 554 38,300  Level FlightAware ADS-B
Mon 09:27:22 PM 45.8400 -52.3770 70° East 481 554 38,300  Level FlightAware ADS-B
Mon 09:28:02 PM 45.8650 -52.2750 71° East 481 554 38,300  Level FlightAware ADS-B
Mon 09:28:42 PM 45.8910 -52.1730 70° East 481 554 38,300  Level FlightAware ADS-B
Mon 09:29:22 PM 45.9170 -52.0710 70° East 481 554 38,300  Level FlightAware ADS-B
Mon 09:30:12 PM 45.9500 -51.9430 70° East 481 554 38,300 1,437 Level FlightAware ADS-B
Mon 09:30:33 PM 45.8333 -51.4667 70° East 490 564 40,000 1,085 Climbing Gander Center
Mon 09:31:46 PM 45.8667 -51.2333 78° East 490 564 40,000  Level Moncton Center
Mon 09:32:33 PM 45.8833 -51.1000 80° East 490 564 40,000  Level Gander Center
Mon 09:34:00 PM 45.8641 -50.8198 76° East  Level FlightAware Approximate
Mon 09:41:00 PM 46.1170 -49.5154 70° East  Level FlightAware Approximate
Mon 09:42:00 PM 46.1622 -49.3323 70° East  Level FlightAware Approximate
Mon 09:42:00 PM 46.0000 -50.0000 70° East 491 565 40,000  Level ETMS Enhanced Traffic Management System
Mon 09:43:00 PM 46.2081 -49.1444 70° East  Level FlightAware Approximate
Mon 09:44:00 PM 46.2537 -48.9561 71° East  Level FlightAware Approximate
Mon 09:45:00 PM 46.2991 -48.7675 71° East  Level FlightAware Approximate
Mon 09:46:00 PM 46.3441 -48.5787 71° East  Level FlightAware Approximate
Mon 09:47:00 PM 46.3888 -48.3895 71° East  Level FlightAware Approximate
Mon 09:48:00 PM 46.4512 -48.1368 71° East 491 565 40,000  Level FlightAware Transoceanic
Mon 09:49:00 PM 46.4947 -47.9489 72° East 491 565 40,000  Level FlightAware Transoceanic
Mon 09:50:00 PM 46.5378 -47.7606 72° East 491 565 40,000  Level FlightAware Transoceanic
Mon 09:51:00 PM 46.5807 -47.5720 72° East 491 565 40,000  Level FlightAware Transoceanic
Mon 09:52:00 PM 46.6232 -47.3831 72° East 491 565 40,000  Level FlightAware Transoceanic
Mon 09:53:00 PM 46.6654 -47.1939 72° East 491 565 40,000  Level FlightAware Transoceanic
Mon 09:54:00 PM 46.7073 -47.0045 72° East 491 565 40,000  Level FlightAware Transoceanic
Mon 09:55:00 PM 46.7489 -46.8147 72° East 491 565 40,000  Level FlightAware Transoceanic
Mon 09:56:00 PM 46.7902 -46.6246 72° East 491 565 40,000  Level FlightAware Transoceanic
Mon 09:57:00 PM 46.8311 -46.4343 73° East 491 565 40,000  Level FlightAware Transoceanic
Mon 09:58:00 PM 46.8717 -46.2436 73° East 491 565 40,000  Level FlightAware Transoceanic
Mon 09:59:00 PM 46.9121 -46.0527 73° East 491 565 40,000  Level FlightAware Transoceanic
Mon 10:00:00 PM 46.9521 -45.8615 73° East 491 565 40,000  Level FlightAware Transoceanic
Mon 10:01:00 PM 46.9918 -45.6700 73° East 491 565 40,000  Level FlightAware Transoceanic
Mon 10:02:00 PM 47.0311 -45.4782 73° East 491 565 40,000  Level FlightAware Transoceanic
Mon 10:03:00 PM 47.0702 -45.2862 73° East 491 565 40,000  Level FlightAware Transoceanic
Mon 10:04:00 PM 47.1089 -45.0938 74° East 491 565 40,000  Level FlightAware Transoceanic
Mon 10:05:00 PM 47.1473 -44.9012 74° East 491 565 40,000  Level FlightAware Transoceanic
Mon 10:06:00 PM 47.1854 -44.7083 74° East 491 565 40,000  Level FlightAware Transoceanic
Mon 10:07:00 PM 47.2231 -44.5151 74° East 491 565 40,000  Level FlightAware Transoceanic
Mon 10:08:00 PM 47.2606 -44.3217 74° East 491 565 40,000  Level FlightAware Transoceanic
Mon 10:09:00 PM 47.2977 -44.1280 74° East 491 565 40,000  Level FlightAware Transoceanic
Mon 10:10:00 PM 47.3344 -43.9340 74° East 491 565 40,000  Level FlightAware Transoceanic
Mon 10:11:00 PM 47.3709 -43.7397 75° East 491 565 40,000  Level FlightAware Transoceanic
Mon 10:12:00 PM 47.4070 -43.5452 75° East 491 565 40,000  Level FlightAware Transoceanic
Mon 10:13:00 PM 47.4428 -43.3504 75° East 491 565 40,000  Level FlightAware Transoceanic
Mon 10:14:00 PM 47.4783 -43.1553 75° East 491 565 40,000  Level FlightAware Transoceanic
Mon 10:15:00 PM 47.5134 -42.9600 75° East 491 565 40,000  Level FlightAware Transoceanic
Mon 10:16:00 PM 47.5482 -42.7644 75° East 491 565 40,000  Level FlightAware Transoceanic
Mon 10:17:00 PM 47.5826 -42.5686 75° East 491 565 40,000  Level FlightAware Transoceanic
Mon 10:18:00 PM 47.6168 -42.3725 76° East 491 565 40,000  Level FlightAware Transoceanic
Mon 10:19:00 PM 47.6506 -42.1761 76° East 491 565 40,000  Level FlightAware Transoceanic
Mon 10:20:00 PM 47.6840 -41.9795 76° East 491 565 40,000  Level FlightAware Transoceanic
Mon 10:21:00 PM 47.7172 -41.7827 76° East 491 565 40,000  Level FlightAware Transoceanic
Mon 10:22:00 PM 47.7499 -41.5856 76° East 491 565 40,000  Level FlightAware Transoceanic
Mon 10:23:00 PM 47.7824 -41.3882 76° East 491 565 40,000  Level FlightAware Transoceanic
Mon 10:24:00 PM 47.8145 -41.1906 76° East 491 565 40,000  Level FlightAware Transoceanic
Mon 10:25:00 PM 47.8463 -40.9928 77° East 491 565 40,000  Level FlightAware Transoceanic
Mon 10:26:00 PM 47.8777 -40.7947 77° East 491 565 40,000  Level FlightAware Transoceanic
Mon 10:27:00 PM 47.9088 -40.5964 77° East 491 565 40,000  Level FlightAware Transoceanic
Mon 10:28:00 PM 47.9395 -40.3978 77° East 491 565 40,000  Level FlightAware Transoceanic
Mon 10:29:00 PM 47.9699 -40.1990 77° East 491 565 40,000  Level FlightAware Transoceanic
Mon 10:30:00 PM 48.0003 -39.9979 77° East  Level FlightAware Approximate
Mon 10:31:00 PM 48.0010 -39.9960 69° East  Level FlightAware Approximate
Mon 10:32:00 PM 48.0496 -39.8029 69° East  Level FlightAware Approximate
Mon 10:33:00 PM 48.0979 -39.6094 69° East  Level FlightAware Approximate
Mon 10:34:00 PM 48.1458 -39.4156 70° East  Level FlightAware Approximate
Mon 10:35:00 PM 48.1934 -39.2214 70° East  Level FlightAware Approximate
Mon 10:35:00 PM 48.0000 -40.0000 69° East 513 590 40,000  Level ETMS Enhanced Traffic Management System
Mon 10:36:00 PM 48.2407 -39.0268 70° East  Level FlightAware Approximate
Mon 10:37:00 PM 48.2876 -38.8319 70° East  Level FlightAware Approximate
Mon 10:38:00 PM 48.3343 -38.6366 70° East  Level FlightAware Approximate
Mon 10:39:00 PM 48.3806 -38.4410 70° East  Level FlightAware Approximate
Mon 10:40:00 PM 48.4265 -38.2450 70° East  Level FlightAware Approximate
Mon 10:41:00 PM 48.5336 -37.7812 71° East 513 590 40,000  Level FlightAware Transoceanic
Mon 10:42:00 PM 48.5800 -37.5772 71° East 513 590 40,000  Level FlightAware Transoceanic
Mon 10:43:00 PM 48.6260 -37.3728 71° East 513 590 40,000  Level FlightAware Transoceanic
Mon 10:44:00 PM 48.6717 -37.1681 71° East 513 590 40,000  Level FlightAware Transoceanic
Mon 10:45:00 PM 48.7170 -36.9630 72° East 513 590 40,000  Level FlightAware Transoceanic
Mon 10:46:00 PM 48.7619 -36.7575 72° East 513 590 40,000  Level FlightAware Transoceanic
Mon 10:47:00 PM 48.8065 -36.5517 72° East 513 590 40,000  Level FlightAware Transoceanic
Mon 10:48:00 PM 48.8507 -36.3454 72° East 513 590 40,000  Level FlightAware Transoceanic
Mon 10:49:00 PM 48.8945 -36.1389 72° East 513 590 40,000  Level FlightAware Transoceanic
Mon 10:50:00 PM 48.9380 -35.9319 72° East 513 590 40,000  Level FlightAware Transoceanic
Mon 10:51:00 PM 48.9811 -35.7247 73° East 513 590 40,000  Level FlightAware Transoceanic
Mon 10:52:00 PM 49.0238 -35.5170 73° East 513 590 40,000  Level FlightAware Transoceanic
Mon 10:53:00 PM 49.0661 -35.3090 73° East 513 590 40,000  Level FlightAware Transoceanic
Mon 10:54:00 PM 49.1081 -35.1007 73° East 513 590 40,000  Level FlightAware Transoceanic
Mon 10:55:00 PM 49.1497 -34.8919 73° East 513 590 40,000  Level FlightAware Transoceanic
Mon 10:56:00 PM 49.1909 -34.6829 73° East 513 590 40,000  Level FlightAware Transoceanic
Mon 10:57:00 PM 49.2317 -34.4735 73° East 513 590 40,000  Level FlightAware Transoceanic
Mon 10:58:00 PM 49.2722 -34.2637 74° East 513 590 40,000  Level FlightAware Transoceanic
Mon 10:59:00 PM 49.3123 -34.0537 74° East 513 590 40,000  Level FlightAware Transoceanic
Mon 11:00:00 PM 49.3520 -33.8432 74° East 513 590 40,000  Level FlightAware Transoceanic
Mon 11:01:00 PM 49.3913 -33.6325 74° East 513 590 40,000  Level FlightAware Transoceanic
Mon 11:02:00 PM 49.4302 -33.4214 74° East 513 590 40,000  Level FlightAware Transoceanic
Mon 11:03:00 PM 49.4688 -33.2099 74° East 513 590 40,000  Level FlightAware Transoceanic
Mon 11:04:00 PM 49.5069 -32.9981 75° East 513 590 40,000  Level FlightAware Transoceanic
Mon 11:05:00 PM 49.5447 -32.7860 75° East 513 590 40,000  Level FlightAware Transoceanic
Mon 11:06:00 PM 49.5821 -32.5736 75° East 513 590 40,000  Level FlightAware Transoceanic
Mon 11:07:00 PM 49.6191 -32.3609 75° East 513 590 40,000  Level FlightAware Transoceanic
Mon 11:08:00 PM 49.6557 -32.1478 75° East 513 590 40,000  Level FlightAware Transoceanic
Mon 11:09:00 PM 49.6919 -31.9344 75° East 513 590 40,000  Level FlightAware Transoceanic
Mon 11:10:00 PM 49.7277 -31.7207 76° East 513 590 40,000  Level FlightAware Transoceanic
Mon 11:11:00 PM 49.7631 -31.5067 76° East 513 590 40,000  Level FlightAware Transoceanic
Mon 11:12:00 PM 49.7982 -31.2924 76° East 513 590 40,000  Level FlightAware Transoceanic
Mon 11:13:00 PM 49.8328 -31.0777 76° East 513 590 40,000  Level FlightAware Transoceanic
Mon 11:14:00 PM 49.8670 -30.8628 76° East 513 590 40,000  Level FlightAware Transoceanic
Mon 11:15:00 PM 49.9009 -30.6475 76° East 513 590 40,000  Level FlightAware Transoceanic
Mon 11:16:00 PM 49.9343 -30.4320 77° East 513 590 40,000  Level FlightAware Transoceanic
Mon 11:17:00 PM 49.9674 -30.2161 77° East 513 590 40,000  Level FlightAware Transoceanic
Mon 11:18:00 PM 49.9989 -30.0072 77° East  Level FlightAware Approximate
Mon 11:19:00 PM 50.0300 -29.7980 77° East  Level FlightAware Approximate
Mon 11:20:00 PM 50.0282 -29.8050 77° East  Level FlightAware Approximate
Mon 11:21:00 PM 50.0582 -29.5953 77° East  Level FlightAware Approximate
Mon 11:21:00 PM 50.0000 -30.0000 77° East 526 605 40,000  Level ETMS Enhanced Traffic Management System
Mon 11:22:00 PM 50.0878 -29.3853 78° East  Level FlightAware Approximate
Mon 11:23:00 PM 50.1170 -29.1755 78° East  Level FlightAware Approximate
Mon 11:24:00 PM 50.1457 -28.9655 78° East  Level FlightAware Approximate
Mon 11:25:00 PM 50.1741 -28.7552 78° East  Level FlightAware Approximate
Mon 11:26:00 PM 50.2021 -28.5447 78° East  Level FlightAware Approximate
Mon 11:27:00 PM 50.2450 -28.2159 79° East 526 605 40,000  Level FlightAware Transoceanic
Mon 11:28:00 PM 50.2737 -27.9917 79° East 526 605 40,000  Level FlightAware Transoceanic
Mon 11:29:00 PM 50.3020 -27.7671 79° East 526 605 40,000  Level FlightAware Transoceanic
Mon 11:30:00 PM 50.3298 -27.5423 79° East 526 605 40,000  Level FlightAware Transoceanic
Mon 11:31:00 PM 50.3572 -27.3173 79° East 526 605 40,000  Level FlightAware Transoceanic
Mon 11:32:00 PM 50.3842 -27.0919 79° East 526 605 40,000  Level FlightAware Transoceanic
Mon 11:33:00 PM 50.4107 -26.8664 80° East 526 605 40,000  Level FlightAware Transoceanic
Mon 11:34:00 PM 50.4368 -26.6406 80° East 526 605 40,000  Level FlightAware Transoceanic
Mon 11:35:00 PM 50.4625 -26.4145 80° East 526 605 40,000  Level FlightAware Transoceanic
Mon 11:36:00 PM 50.4877 -26.1882 80° East 526 605 40,000  Level FlightAware Transoceanic
Mon 11:37:00 PM 50.5125 -25.9616 80° East 526 605 40,000  Level FlightAware Transoceanic
Mon 11:38:00 PM 50.5368 -25.7348 81° East 526 605 40,000  Level FlightAware Transoceanic
Mon 11:39:00 PM 50.5607 -25.5078 81° East 526 605 40,000  Level FlightAware Transoceanic
Mon 11:40:00 PM 50.5841 -25.2805 81° East 526 605 40,000  Level FlightAware Transoceanic
Mon 11:41:00 PM 50.6072 -25.0531 81° East 526 605 40,000  Level FlightAware Transoceanic
Mon 11:42:00 PM 50.6297 -24.8254 81° East 526 605 40,000  Level FlightAware Transoceanic
Mon 11:43:00 PM 50.6519 -24.5975 81° East 526 605 40,000  Level FlightAware Transoceanic
Mon 11:44:00 PM 50.6735 -24.3693 82° East 526 605 40,000  Level FlightAware Transoceanic
Mon 11:45:00 PM 50.6948 -24.1410 82° East 526 605 40,000  Level FlightAware Transoceanic
Mon 11:46:00 PM 50.7156 -23.9125 82° East 526 605 40,000  Level FlightAware Transoceanic
Mon 11:47:00 PM 50.7359 -23.6837 82° East 526 605 40,000  Level FlightAware Transoceanic
Mon 11:48:00 PM 50.7558 -23.4548 82° East 526 605 40,000  Level FlightAware Transoceanic
Mon 11:49:00 PM 50.7752 -23.2257 82° East 526 605 40,000  Level FlightAware Transoceanic
Mon 11:50:00 PM 50.7942 -22.9963 83° East 526 605 40,000  Level FlightAware Transoceanic
Mon 11:51:00 PM 50.8128 -22.7668 83° East 526 605 40,000  Level FlightAware Transoceanic
Mon 11:52:00 PM 50.8309 -22.5372 83° East 526 605 40,000  Level FlightAware Transoceanic
Mon 11:53:00 PM 50.8485 -22.3073 83° East 526 605 40,000  Level FlightAware Transoceanic
Mon 11:54:00 PM 50.8657 -22.0773 83° East 526 605 40,000  Level FlightAware Transoceanic
Mon 11:55:00 PM 50.8824 -21.8471 84° East 526 605 40,000  Level FlightAware Transoceanic
Mon 11:56:00 PM 50.8987 -21.6167 84° East 526 605 40,000  Level FlightAware Transoceanic
Mon 11:57:00 PM 50.9146 -21.3862 84° East 526 605 40,000  Level FlightAware Transoceanic
Mon 11:58:00 PM 50.9299 -21.1555 84° East 526 605 40,000  Level FlightAware Transoceanic
Mon 11:59:00 PM 50.9449 -20.9247 84° East 526 605 40,000  Level FlightAware Transoceanic
Tue 12:00:00 AM 50.9593 -20.6937 84° East 526 605 40,000  Level FlightAware Transoceanic
Tue 12:01:00 AM 50.9733 -20.4626 85° East 526 605 40,000  Level FlightAware Transoceanic
Tue 12:02:00 AM 50.9869 -20.2314 85° East 526 605 40,000 -30 Level FlightAware Transoceanic
Tue 12:03:00 AM 50.9992 -20.0135 85° East  Level FlightAware Approximate
Tue 12:04:00 AM 51.0111 -19.7956 85° East  Level FlightAware Approximate
Tue 12:05:00 AM 50.9863 -19.8097 96° East  Level FlightAware Approximate
Tue 12:06:00 AM 50.9702 -19.5920 97° East  Level FlightAware Approximate
Tue 12:07:00 AM 50.9538 -19.3745 97° East  Level FlightAware Approximate
Tue 12:08:00 AM 50.9369 -19.1571 97° East  Level FlightAware Approximate
Tue 12:09:00 AM 50.9196 -18.9399 97° East  Level FlightAware Approximate
Tue 12:10:00 AM 50.9020 -18.7229 97° East  Level FlightAware Approximate
Tue 12:11:00 AM 50.8839 -18.5060 97° East  Level FlightAware Approximate
Tue 12:12:00 AM 50.8654 -18.2893 98° East  Level FlightAware Approximate
Tue 12:13:00 AM 50.8465 -18.0728 98° East  Level FlightAware Approximate
Tue 12:14:00 AM 50.8272 -17.8564 98° East  Level FlightAware Approximate
Tue 12:15:00 AM 50.8075 -17.6402 98° East  Level FlightAware Approximate
Tue 12:16:00 AM 50.7875 -17.4242 98° East  Level FlightAware Approximate
Tue 12:17:00 AM 50.7670 -17.2084 98° East  Level FlightAware Approximate
Tue 12:18:00 AM 50.7461 -16.9928 99° East  Level FlightAware Approximate
Tue 12:19:00 AM 50.7248 -16.7774 99° East  Level FlightAware Approximate
Tue 12:20:00 AM 50.7032 -16.5622 99° East  Level FlightAware Approximate
Tue 12:21:00 AM 50.6811 -16.3472 99° East  Level FlightAware Approximate
Tue 12:22:00 AM 50.6586 -16.1323 99° East  Level FlightAware Approximate
Tue 12:23:00 AM 50.6358 -15.9177 99° East  Level FlightAware Approximate
Tue 12:24:00 AM 50.6125 -15.7033 100° East  Level FlightAware Approximate
Tue 12:25:00 AM 50.5889 -15.4891 100° East  Level FlightAware Approximate
Tue 12:26:00 AM 50.5648 -15.2752 100° East  Level FlightAware Approximate
Tue 12:27:00 AM 50.5404 -15.0614 100° East  Level FlightAware Approximate
Tue 12:28:00 AM 50.5132 -14.8486 102° East  Level FlightAware Approximate
Tue 12:29:00 AM 50.4864 -14.6358 101° East  Level FlightAware Approximate
Tue 12:30:00 AM 50.4607 -14.4228 101° East  Level FlightAware Approximate
Tue 12:31:00 AM 50.4346 -14.2100 101° East  Level FlightAware Approximate
Tue 12:32:00 AM 50.4082 -13.9974 101° East  Level FlightAware Approximate
Tue 12:33:00 AM 50.3813 -13.7851 101° East  Level FlightAware Approximate
Tue 12:34:00 AM 50.3541 -13.5730 101° East  Level FlightAware Approximate
Tue 12:35:00 AM 50.3264 -13.3612 101° East  Level FlightAware Approximate
Tue 12:36:00 AM 50.2984 -13.1496 102° East  Level FlightAware Approximate
Tue 12:37:00 AM 50.2700 -12.9383 102° East  Level FlightAware Approximate
Tue 12:38:00 AM 50.2413 -12.7272 102° East  Level FlightAware Approximate
Tue 12:39:00 AM 50.2121 -12.5164 102° East  Level FlightAware Approximate
Tue 12:40:00 AM 50.1826 -12.3059 102° East  Level FlightAware Approximate
Tue 12:41:00 AM 50.1526 -12.0955 102° East  Level FlightAware Approximate
Tue 12:42:00 AM 50.1223 -11.8855 103° East  Level FlightAware Approximate
Tue 12:43:00 AM 50.0917 -11.6757 103° East  Level FlightAware Approximate
Tue 12:44:00 AM 50.0606 -11.4662 103° East  Level FlightAware Approximate
Tue 12:45:00 AM 50.0292 -11.2570 103° East  Level FlightAware Approximate
Tue 12:46:00 AM 49.9974 -11.0481 103° East  Level FlightAware Approximate
Tue 12:47:00 AM 49.9652 -10.8394 103° East  Level FlightAware Approximate
Tue 12:48:00 AM 49.9326 -10.6310 104° East  Level FlightAware Approximate
Tue 12:49:00 AM 49.8997 -10.4229 104° East  Level FlightAware Approximate
Tue 12:50:00 AM 49.8664 -10.2151 103° East  Level FlightAware Approximate
Tue 12:51:00 AM 49.8340 -10.0070 103° East  Level FlightAware Approximate
Tue 12:51:12 AM 49.7563 -9.0086 103° East 460 529 38,500  Level FlightAware UK
Tue 12:51:30 AM 49.7413 -8.9475 111° Southeast 460 529 38,500  Level FlightAware UK
Tue 12:51:48 AM 49.7262 -8.8864 111° Southeast 458 527 38,500  Level FlightAware UK
Tue 12:52:06 AM 49.7110 -8.8251 111° Southeast 458 527 38,500  Level FlightAware UK
Tue 12:52:24 AM 49.6958 -8.7640 111° Southeast 458 527 38,500  Level FlightAware UK
Tue 12:52:42 AM 49.6806 -8.7029 111° Southeast 456 525 38,500  Level FlightAware UK
Tue 12:53:00 AM 49.6653 -8.6418 111° Southeast 456 525 38,500  Level FlightAware UK
Tue 12:53:18 AM 49.6498 -8.5808 111° Southeast 456 525 38,500  Level FlightAware UK
Tue 12:53:36 AM 49.6344 -8.5199 111° Southeast 456 525 38,500  Level FlightAware UK
Tue 12:53:54 AM 49.6188 -8.4589 111° Southeast 454 522 38,500  Level FlightAware UK
Tue 12:54:12 AM 49.6032 -8.3979 111° Southeast 456 525 38,500  Level FlightAware UK
Tue 12:54:30 AM 49.5877 -8.3368 111° Southeast 456 525 38,500  Level FlightAware UK
Tue 12:54:48 AM 49.5723 -8.2756 111° Southeast 456 525 38,500  Level FlightAware UK
Tue 12:55:06 AM 49.5568 -8.2144 111° Southeast 456 525 38,500  Level FlightAware UK
Tue 12:55:24 AM 49.5412 -8.1532 112° Southeast 456 525 38,500  Level FlightAware UK
Tue 12:55:42 AM 49.5255 -8.0921 111° Southeast 456 525 38,500  Level FlightAware UK
Tue 12:56:00 AM 49.5102 -8.0299 111° Southeast 456 525 38,500 3,000 Level FlightAware UK
Tue 12:56:12 AM 49.5130 -8.0490 111° Southeast 515 593 40,000 3,333 Climbing FlightAware ADS-B
Tue 12:56:27 AM 49.5070 -7.9810 111° Southeast 528 608 40,000 -5,000 Level FlightAware ADS-B
Tue 12:56:30 AM 49.4995 -7.9184 111° Southeast 454 522 38,500 -6,000 Descending FlightAware UK
Tue 12:56:42 AM 49.4986 -7.8734 111° Southeast 454 522 38,500  Level FlightAware UK
Tue 12:57:00 AM 49.4977 -7.8058 91° East 454 522 38,500 3,600 Level FlightAware UK
Tue 12:57:07 AM 49.5020 -7.8260 91° East 530 610 40,000  Climbing FlightAware ADS-B
Tue 12:57:24 AM 49.4953 -7.7158 91° East 456 525 38,500 -2,571 Descending FlightAware UK
Tue 12:57:42 AM 49.4936 -7.6480 92° East 456 525 38,500 3,214 Level FlightAware UK
Tue 12:57:52 AM 49.4980 -7.6500 92° East 532 612 40,000  Climbing FlightAware ADS-B
Tue 12:58:12 AM 49.4908 -7.5351 92° East 454 522 38,500 -2,368 Descending FlightAware UK
Tue 12:58:30 AM 49.4889 -7.4674 92° East 454 522 38,500 4,500 Level FlightAware UK
Tue 12:58:32 AM 49.4930 -7.5000 92° East 533 613 40,000  Climbing FlightAware ADS-B
Tue 12:58:48 AM 49.4860 -7.3997 92° East 454 522 38,500 -2,647 Descending FlightAware UK
Tue 12:59:06 AM 49.4823 -7.3317 95° East 454 522 38,500 3,103 Level FlightAware UK
Tue 12:59:17 AM 49.4840 -7.3370 95° East 534 615 40,000  Climbing FlightAware ADS-B
Tue 12:59:36 AM 49.4759 -7.2187 95° East 456 525 38,500 -2,432 Descending FlightAware UK
Tue 12:59:54 AM 49.4723 -7.1508 95° East 456 525 38,500 4,286 Level FlightAware UK
Tue 12:59:57 AM 49.4760 -7.1820 95° East 535 616 40,000  Climbing FlightAware ADS-B
Tue 01:00:12 AM 49.4685 -7.0829 95° East 456 525 38,500 -2,727 Descending FlightAware UK
Tue 01:00:30 AM 49.4649 -7.0141 95° East 456 525 38,500 3,000 Level FlightAware UK
Tue 01:00:42 AM 49.4670 -7.0040 95° East 536 617 40,000  Climbing FlightAware ADS-B
Tue 01:01:00 AM 49.4591 -6.9007 95° East 456 525 38,500 -2,500 Descending FlightAware UK
Tue 01:01:18 AM 49.4557 -6.8325 94° East 458 527 38,500 4,091 Level FlightAware UK
Tue 01:01:22 AM 49.4590 -6.8510 94° East 537 618 40,000  Climbing FlightAware ADS-B
Tue 01:01:42 AM 49.4510 -6.7416 94° East 460 529 38,500 -2,368 Descending FlightAware UK
Tue 01:02:00 AM 49.4477 -6.6734 94° East 460 529 38,500 4,500 Level FlightAware UK
Tue 01:02:02 AM 49.4510 -6.7010 94° East 537 618 40,000  Climbing FlightAware ADS-B
Tue 01:02:18 AM 49.4443 -6.6054 94° East 462 532 38,500 -2,647 Descending FlightAware UK
Tue 01:02:36 AM 49.4406 -6.5372 95° East 460 529 38,500  Level FlightAware UK
Tue 01:02:54 AM 49.4369 -6.4691 95° East 460 529 38,500  Level FlightAware UK
Tue 01:03:12 AM 49.4331 -6.4010 95° East 458 527 38,500  Level FlightAware UK
Tue 01:03:30 AM 49.4295 -6.3329 95° East 460 529 38,500  Level FlightAware UK
Tue 01:03:48 AM 49.4261 -6.2648 94° East 462 532 38,500  Level FlightAware UK
Tue 01:04:06 AM 49.4223 -6.1970 95° East 462 532 38,500  Level FlightAware UK
Tue 01:04:24 AM 49.4185 -6.1292 95° East 458 527 38,500  Level FlightAware UK
Tue 01:04:42 AM 49.4144 -6.0608 95° East 458 527 38,500  Level FlightAware UK
Tue 01:05:00 AM 49.4101 -5.9935 96° East 456 525 38,500  Level FlightAware UK
Tue 01:05:18 AM 49.4059 -5.9262 96° East 458 527 38,500  Level FlightAware UK
Tue 01:05:36 AM 49.4015 -5.8590 96° East 456 525 38,500  Level FlightAware UK
Tue 01:05:54 AM 49.3971 -5.7919 96° East 454 522 38,500  Level FlightAware UK
Tue 01:06:12 AM 49.3928 -5.7249 96° East 452 520 38,500  Level FlightAware UK
Tue 01:06:30 AM 49.3886 -5.6579 95° East 454 522 38,500  Level FlightAware UK
Tue 01:06:48 AM 49.3844 -5.5909 95° East 452 520 38,500 3,333 Level FlightAware UK
Tue 01:06:57 AM 49.3850 -5.6040 95° East 529 609 40,000  Climbing FlightAware ADS-B
Tue 01:07:12 AM 49.3786 -5.5017 95° East 454 522 38,500 -2,727 Descending FlightAware UK
Tue 01:07:30 AM 49.3744 -5.4349 96° East 454 522 38,500 3,600 Level FlightAware UK
Tue 01:07:37 AM 49.3750 -5.4520 96° East 528 608 40,000  Climbing FlightAware ADS-B
Tue 01:07:54 AM 49.3687 -5.3458 96° East 454 522 38,500 -2,571 Descending FlightAware UK
Tue 01:08:12 AM 49.3645 -5.2791 96° East 452 520 38,500 3,214 Level FlightAware UK
Tue 01:08:22 AM 49.3640 -5.2850 96° East 527 606 40,000  Climbing FlightAware ADS-B
Tue 01:08:42 AM 49.3577 -5.1671 96° East 452 520 38,500 -2,368 Descending FlightAware UK
Tue 01:09:00 AM 49.3534 -5.1005 96° East 452 520 38,500 4,500 Level FlightAware UK
Tue 01:09:02 AM 49.3550 -5.1370 96° East 527 606 40,000  Climbing FlightAware ADS-B
Tue 01:09:18 AM 49.3491 -5.0338 96° East 452 520 38,500 -2,647 Descending FlightAware UK
Tue 01:09:36 AM 49.3448 -4.9673 96° East 452 520 38,500 3,103 Level FlightAware UK
Tue 01:09:47 AM 49.3440 -4.9780 96° East 526 605 40,000  Climbing FlightAware ADS-B
Tue 01:10:06 AM 49.3373 -4.8565 96° East 452 520 38,500 -2,432 Descending FlightAware UK
Tue 01:10:24 AM 49.3328 -4.7900 96° East 452 520 38,500 4,286 Level FlightAware UK
Tue 01:10:27 AM 49.3340 -4.8250 96° East 527 606 40,000  Climbing FlightAware ADS-B
Tue 01:10:42 AM 49.3281 -4.7235 96° East 452 520 38,500 -2,727 Descending FlightAware UK
Tue 01:11:00 AM 49.3233 -4.6571 96° East 450 518 38,500 3,000 Level FlightAware UK
Tue 01:11:12 AM 49.3220 -4.6590 96° East 527 606 40,000  Climbing FlightAware ADS-B
Tue 01:11:30 AM 49.3155 -4.5464 96° East 452 520 38,500 -2,500 Descending FlightAware UK
Tue 01:11:48 AM 49.3104 -4.4800 97° East 450 518 38,500 4,091 Level FlightAware UK
Tue 01:11:52 AM 49.3110 -4.5150 97° East 527 606 40,000  Climbing FlightAware ADS-B
Tue 01:12:12 AM 49.3038 -4.3912 97° East 452 520 38,500 -2,368 Descending FlightAware UK
Tue 01:12:30 AM 49.2987 -4.3247 97° East 452 520 38,500 4,500 Level FlightAware UK
Tue 01:12:32 AM 49.3000 -4.3660 97° East 527 606 40,000  Climbing FlightAware ADS-B
Tue 01:12:48 AM 49.2936 -4.2580 97° East 452 520 38,500 -2,647 Descending FlightAware UK
Tue 01:13:06 AM 49.2885 -4.1914 97° East 450 518 38,500 3,103 Level FlightAware UK
Tue 01:13:17 AM 49.2870 -4.1930 97° East 528 608 40,000  Climbing FlightAware ADS-B
Tue 01:13:37 AM 49.2803 -4.0795 97° East 452 520 38,500 -2,368 Descending FlightAware UK
Tue 01:13:55 AM 49.2751 -4.0129 97° East 452 520 38,500 4,500 Level FlightAware UK
Tue 01:13:57 AM 49.2760 -4.0510 97° East 528 608 40,000  Climbing FlightAware ADS-B
Tue 01:14:13 AM 49.2699 -3.9463 97° East 450 518 38,500 -2,647 Descending FlightAware UK
Tue 01:14:31 AM 49.2647 -3.8798 97° East 452 520 38,500 3,103 Level FlightAware UK
Tue 01:14:42 AM 49.2630 -3.8780 97° East 529 609 40,000  Climbing FlightAware ADS-B
Tue 01:15:01 AM 49.2560 -3.7680 97° East 452 520 38,500 -2,432 Descending FlightAware UK
Tue 01:15:19 AM 49.2507 -3.7013 97° East 454 522 38,500 4,286 Level FlightAware UK
Tue 01:15:22 AM 49.2510 -3.7330 97° East 528 608 40,000  Climbing FlightAware ADS-B
Tue 01:15:37 AM 49.2454 -3.6346 97° East 452 520 38,500 -2,727 Descending FlightAware UK
Tue 01:15:55 AM 49.2402 -3.5679 97° East 452 520 38,500 3,600 Level FlightAware UK
Tue 01:16:02 AM 49.2390 -3.5830 97° East 529 609 40,000  Climbing FlightAware ADS-B
Tue 01:16:19 AM 49.2331 -3.4790 97° East 454 522 38,500 -2,571 Descending FlightAware UK
Tue 01:16:37 AM 49.2277 -3.4123 97° East 454 522 38,500 3,214 Level FlightAware UK
Tue 01:16:47 AM 49.2260 -3.4130 97° East 529 609 40,000  Climbing FlightAware ADS-B
Tue 01:17:07 AM 49.2187 -3.3012 97° East 458 527 38,500  Descending FlightAware UK
Tue 01:17:27 AM 49.2140 -3.2670 97° East 528 608 40,000  Climbing FlightAware ADS-B
Tue 01:17:43 AM 49.2077 -3.1673 97° East 454 522 38,500 -2,647 Descending FlightAware UK
Tue 01:18:01 AM 49.2022 -3.1000 97° East 452 520 38,500 3,750 Level FlightAware UK
Tue 01:18:07 AM 49.2020 -3.1210 97° East 529 609 40,000  Climbing FlightAware ADS-B
Tue 01:18:25 AM 49.1953 -3.0113 97° East 452 520 38,500 -2,500 Descending FlightAware UK
Tue 01:18:43 AM 49.1895 -2.9448 98° East 454 522 38,500 3,333 Level FlightAware UK
Tue 01:18:52 AM 49.1890 -2.9640 98° East 529 609 40,000  Climbing FlightAware ADS-B
Tue 01:19:07 AM 49.1817 -2.8561 98° East 456 525 38,500 -2,727 Descending FlightAware UK
Tue 01:19:25 AM 49.1759 -2.7890 97° East 456 525 38,500 3,600 Level FlightAware UK
Tue 01:19:32 AM 49.1750 -2.8020 97° East 529 609 40,000  Climbing FlightAware ADS-B
Tue 01:19:49 AM 49.1681 -2.7011 97° East 454 522 38,500 -2,571 Descending FlightAware UK
Tue 01:20:07 AM 49.1618 -2.6339 98° East 452 520 38,500 3,214 Level FlightAware UK
Tue 01:20:17 AM 49.1620 -2.6540 98° East 529 609 40,000  Climbing FlightAware ADS-B
Tue 01:20:37 AM 49.1519 -2.5230 98° East 452 520 38,500 -2,368 Descending FlightAware UK
Tue 01:20:55 AM 49.1457 -2.4565 98° East 452 520 38,500 4,500 Level FlightAware UK
Tue 01:20:57 AM 49.1470 -2.4920 98° East 530 610 40,000  Climbing FlightAware ADS-B
Tue 01:21:14 AM 49.1393 -2.3895 98° East 452 520 38,500 -2,571 Descending FlightAware UK
Tue 01:21:32 AM 49.1328 -2.3231 98° East 450 518 38,500 3,214 Level FlightAware UK
Tue 01:21:42 AM 49.1300 -2.3130 98° East 530 610 40,000  Climbing FlightAware ADS-B
Tue 01:22:02 AM 49.1219 -2.2122 98° East 450 518 38,500 -2,368 Descending FlightAware UK
Tue 01:22:20 AM 49.1153 -2.1453 99° East 452 520 38,500 4,500 Level FlightAware UK
Tue 01:22:22 AM 49.1160 -2.1640 99° East 530 610 40,000  Climbing FlightAware ADS-B
Tue 01:22:38 AM 49.1087 -2.0776 99° East 452 520 38,500 -2,647 Descending FlightAware UK
Tue 01:22:56 AM 49.1022 -2.0113 98° East 452 520 38,500 3,750 Level FlightAware UK
Tue 01:23:02 AM 49.1020 -2.0150 98° East 531 611 40,000  Climbing FlightAware ADS-B
Tue 01:23:20 AM 49.0937 -1.9217 98° East 454 522 38,500 -2,500 Descending FlightAware UK
Tue 01:23:38 AM 49.0873 -1.8545 98° East 456 525 38,500  Level FlightAware UK
Tue 01:23:56 AM 49.0809 -1.7881 98° East 456 525 38,500  Level FlightAware UK
Tue 01:24:14 AM 49.0746 -1.7217 98° East 458 527 38,500  Level FlightAware UK
Tue 01:24:38 AM 49.0664 -1.6330 98° East 458 527 38,500 2,368 Level FlightAware UK
Tue 01:24:52 AM 49.0650 -1.6300 98° East 528 608 40,000  Climbing FlightAware ADS-B
Tue 01:25:08 AM 49.0559 -1.5225 98° East 458 527 38,500 -2,647 Descending FlightAware UK
Tue 01:25:26 AM 49.0495 -1.4565 98° East 458 527 38,500 3,103 Level FlightAware UK
Tue 01:25:37 AM 49.0490 -1.4570 98° East 526 605 40,000  Climbing FlightAware ADS-B
Tue 01:25:56 AM 49.0387 -1.3473 98° East 456 525 38,500 -2,432 Descending FlightAware UK
Tue 01:26:14 AM 49.0320 -1.2800 99° East 456 525 38,500 4,286 Level FlightAware UK
Tue 01:26:17 AM 49.0350 -1.3090 99° East 525 604 40,000  Climbing FlightAware ADS-B
Tue 01:26:32 AM 49.0254 -1.2142 99° East 454 522 38,500 -2,727 Descending FlightAware UK
Tue 01:26:50 AM 49.0188 -1.1491 99° East 452 520 38,500 3,000 Level FlightAware UK
Tue 01:27:02 AM 49.0190 -1.1470 99° East 526 605 40,000  Climbing FlightAware ADS-B
Tue 01:27:20 AM 49.0077 -1.0393 99° East 454 522 38,500 -2,500 Descending FlightAware UK
Tue 01:27:38 AM 49.0010 -0.9726 99° East 454 522 38,500 4,091 Level FlightAware UK
Tue 01:27:42 AM 49.0040 -0.9980 99° East 527 606 40,000  Climbing FlightAware ADS-B
Tue 01:28:02 AM 48.9918 -0.8848 99° East 454 522 38,500 -2,368 Descending FlightAware UK
Tue 01:28:20 AM 48.9850 -0.8189 99° East 454 522 38,500 3,600 Level FlightAware UK
Tue 01:28:27 AM 48.9880 -0.8370 99° East 527 606 40,000  Climbing FlightAware ADS-B
Tue 01:28:51 AM 48.9734 -0.7085 99° East 454 522 38,500  Descending FlightAware UK
Tue 01:29:07 AM 48.9730 -0.6890 99° East 528 608 40,000  Climbing FlightAware ADS-B
Tue 01:29:27 AM 48.9598 -0.5767 99° East 452 520 38,500 -2,368 Descending FlightAware UK
Tue 01:29:45 AM 48.9528 -0.5102 99° East 452 520 38,500 4,500 Level FlightAware UK
Tue 01:29:47 AM 48.9570 -0.5420 99° East 527 606 40,000  Climbing FlightAware ADS-B
Tue 01:30:03 AM 48.9460 -0.4449 99° East 454 522 38,500 -2,250 Descending FlightAware UK
Tue 01:30:27 AM 48.9362 -0.3564 100° East 456 525 38,500 3,103 Level FlightAware UK
Tue 01:30:32 AM 48.9420 -0.3930 100° East 527 606 40,000  Climbing FlightAware ADS-B
Tue 01:30:51 AM 48.9264 -0.2694 100° East 456 525 38,500 -2,432 Descending FlightAware UK
Tue 01:31:09 AM 48.9191 -0.2029 99° East 456 525 38,500 4,286 Level FlightAware UK
Tue 01:31:12 AM 48.9240 -0.2310 99° East 526 605 40,000  Climbing FlightAware ADS-B
Tue 01:31:27 AM 48.9118 -0.1365 99° East 456 525 38,500  Descending FlightAware UK
Tue 01:31:57 AM 48.9050 -0.0540 99° East 525 604 40,000  Climbing FlightAware ADS-B
Tue 01:32:15 AM 48.8923 0.0381 99° East 454 522 38,500 -2,500 Descending FlightAware UK
Tue 01:32:33 AM 48.8847 0.1034 100° East 452 520 38,500 4,091 Level FlightAware UK
Tue 01:32:37 AM 48.8900 0.0820 100° East 524 603 40,000  Climbing FlightAware ADS-B
Tue 01:32:57 AM 48.8745 0.1902 100° East 452 520 38,500 -2,368 Descending FlightAware UK
Tue 01:33:15 AM 48.8668 0.2560 100° East 450 518 38,500 4,500 Level FlightAware UK
Tue 01:33:17 AM 48.8740 0.2230 100° East 524 603 40,000  Climbing FlightAware ADS-B
Tue 01:33:33 AM 48.8593 0.3212 100° East 452 520 38,500 -2,647 Descending FlightAware UK
Tue 01:33:51 AM 48.8516 0.3856 100° East 452 520 38,500 3,750 Level FlightAware UK
Tue 01:33:57 AM 48.8560 0.3760 100° East 524 603 40,000  Climbing FlightAware ADS-B
Tue 01:34:15 AM 48.8413 0.4732 100° East 450 518 38,500 -2,500 Descending FlightAware UK
Tue 01:34:33 AM 48.8337 0.5385 100° East 454 522 38,500 3,333 Level FlightAware UK
Tue 01:34:42 AM 48.8370 0.5380 100° East 524 603 40,000  Climbing FlightAware ADS-B
Tue 01:34:57 AM 48.8233 0.6254 100° East 458 527 38,500 -2,727 Descending FlightAware UK
Tue 01:35:15 AM 48.8156 0.6913 100° East 454 522 38,500 3,000 Level FlightAware UK
Tue 01:35:27 AM 48.8190 0.7000 100° East 522 601 40,000  Climbing FlightAware ADS-B
Tue 01:35:45 AM 48.8027 0.7989 100° East 456 525 38,500 -2,432 Descending FlightAware UK
Tue 01:36:04 AM 48.7947 0.8652 100° East 452 520 38,500 4,091 Level FlightAware UK
Tue 01:36:07 AM 48.8030 0.8370 100° East 522 601 40,000  Climbing FlightAware ADS-B
Tue 01:36:22 AM 48.7868 0.9299 100° East 450 518 38,500 -2,727 Descending FlightAware UK
Tue 01:36:40 AM 48.7790 0.9945 100° East 450 518 38,500 3,600 Level FlightAware UK
Tue 01:36:47 AM 48.7840 0.9920 100° East 521 600 40,000  Climbing FlightAware ADS-B
Tue 01:37:04 AM 48.7685 1.0807 100° East 450 518 38,500 -2,571 Descending FlightAware UK
Tue 01:37:22 AM 48.7605 1.1451 101° East 450 518 38,500 3,214 Level FlightAware UK
Tue 01:37:32 AM 48.7650 1.1490 101° East 520 598 40,000  Climbing FlightAware ADS-B
Tue 01:37:52 AM 48.7469 1.2531 101° East 450 518 38,500  Descending FlightAware UK
Tue 01:38:12 AM 48.7460 1.2930 101° East 520 598 40,000  Climbing FlightAware ADS-B
Tue 01:38:28 AM 48.7279 1.3802 101° East 454 522 38,500 -2,647 Descending FlightAware UK
Tue 01:38:46 AM 48.7172 1.4446 104° East 456 525 38,500 3,750 Level FlightAware UK
Tue 01:38:52 AM 48.7260 1.4290 104° East 521 600 40,000  Climbing FlightAware ADS-B
Tue 01:39:10 AM 48.7037 1.5297 104° East 454 522 38,500 -2,500 Descending FlightAware UK
Tue 01:39:28 AM 48.6940 1.5935 103° East 452 520 38,500 3,333 Level FlightAware UK
Tue 01:39:37 AM 48.7030 1.5780 103° East 520 598 40,000  Climbing FlightAware ADS-B
Tue 01:39:52 AM 48.6807 1.6793 103° East 452 520 38,500 -2,727 Descending FlightAware UK
Tue 01:40:10 AM 48.6709 1.7423 103° East 450 518 38,500 3,600 Level FlightAware UK
Tue 01:40:17 AM 48.6800 1.7330 103° East 519 597 40,000  Climbing FlightAware ADS-B
Tue 01:40:34 AM 48.6580 1.8281 103° East 452 520 38,500 -2,571 Descending FlightAware UK
Tue 01:40:52 AM 48.6486 1.8918 103° East 450 518 38,500 3,214 Level FlightAware UK
Tue 01:41:02 AM 48.6570 1.8870 103° East 517 595 40,000  Climbing FlightAware ADS-B
Tue 01:41:22 AM 48.6333 1.9987 103° East 450 518 38,500  Descending FlightAware UK
Tue 01:41:42 AM 48.6370 2.0260 103° East 518 596 40,000  Climbing FlightAware ADS-B
Tue 01:41:58 AM 48.6145 2.1259 103° East 448 516 38,500 -2,647 Descending FlightAware UK
Tue 01:42:16 AM 48.6051 2.1893 103° East 448 516 38,500 3,750 Level FlightAware UK
Tue 01:42:22 AM 48.6160 2.1700 103° East 517 595 40,000 1,765 Climbing FlightAware ADS-B
Tue 01:43:07 AM 48.5920 2.3320 103° East 518 596 40,000  Level FlightAware ADS-B
Tue 01:43:49 AM 48.5673 2.4892 103° East 518 596 40,000  Level FlightAware ADS-B
Tue 01:44:49 AM 48.5340 2.7012 103° East 519 597 40,000  Level FlightAware ADS-B
Tue 01:45:42 AM 48.5080 2.8630 104° East 517 595 40,000  Level FlightAware ADS-B
Tue 01:46:22 AM 48.4860 2.9960 104° East 517 595 40,000  Level FlightAware ADS-B
Tue 01:47:02 AM 48.4610 3.1480 104° East 516 594 40,000  Level FlightAware ADS-B
Tue 01:47:47 AM 48.4350 3.3080 104° East 513 590 40,000 -43 Level FlightAware ADS-B
Tue 01:49:22 AM 48.3820 3.6270 104° East 507 583 39,900 -600 Descending FlightAware ADS-B
Tue 01:50:07 AM 48.3560 3.7800 104° East 521 600 38,600 -1,624 Descending FlightAware ADS-B
Tue 01:50:47 AM 48.3320 3.9220 104° East 526 605 37,600 -1,350 Descending FlightAware ADS-B
Tue 01:51:27 AM 48.3070 4.0690 104° East 522 601 36,800 -1,271 Descending FlightAware ADS-B
Tue 01:52:12 AM 48.2800 4.2240 105° East 509 586 35,800 -1,271 Descending FlightAware ADS-B
Tue 01:52:52 AM 48.2560 4.3660 104° East 492 566 35,000 -565 Descending FlightAware ADS-B
Tue 01:53:37 AM 48.2290 4.5140 105° East 491 565 35,000  Level FlightAware ADS-B
Tue 01:54:17 AM 48.2060 4.6500 104° East 497 572 35,000  Level FlightAware ADS-B
Tue 01:55:02 AM 48.1800 4.7990 105° East 500 575 35,000 -432 Level FlightAware ADS-B
Tue 01:56:22 AM 48.1310 5.0680 105° East 500 575 34,100 -816 Descending FlightAware ADS-B
Tue 01:57:07 AM 48.1040 5.2110 106° East 499 574 33,300 -1,140 Descending FlightAware ADS-B
Tue 01:58:02 AM 48.0700 5.3950 105° East 494 568 32,200 -1,263 Descending FlightAware ADS-B
Tue 01:58:42 AM 48.0450 5.5260 106° East 495 570 31,300 -847 Descending FlightAware ADS-B
Tue 01:59:27 AM 48.0150 5.6790 106° East 494 568 31,000 -212 Descending FlightAware ADS-B
Tue 02:00:07 AM 47.9920 5.8000 106° East 493 567 31,000  Level FlightAware ADS-B
Tue 02:00:52 AM 47.9590 5.9590 107° East 500 575 31,000 -353 Level FlightAware ADS-B
Tue 02:01:32 AM 47.9330 6.0880 107° East 495 570 30,500 -1,440 Descending FlightAware ADS-B
Tue 02:02:07 AM 47.9110 6.2020 106° East 483 556 29,200 -1,906 Descending FlightAware ADS-B
Tue 02:02:57 AM 47.8860 6.3350 106° East 465 535 27,800 -1,642 Descending FlightAware ADS-B
Tue 02:03:42 AM 47.8630 6.4790 103° East 458 527 26,600 -1,600 Descending FlightAware ADS-B
Tue 02:04:12 AM 47.8470 6.5800 103° East 452 520 25,800 -1,425 Descending FlightAware ADS-B
Tue 02:05:02 AM 47.8270 6.7100 103° East 454 522 24,700 -1,333 Descending FlightAware ADS-B
Tue 02:05:42 AM 47.8070 6.8310 104° East 454 522 23,800 -1,482 Descending FlightAware ADS-B
Tue 02:06:27 AM 47.7840 6.9710 104° East 433 498 22,600 -1,620 Descending FlightAware ADS-B
Tue 02:07:22 AM 47.7550 7.1300 105° East 413 475 21,100 -1,600 Descending FlightAware ADS-B
Tue 02:07:57 AM 47.7250 7.2280 114° Southeast 409 471 20,200 -825 Descending FlightAware ADS-B
Tue 02:08:42 AM 47.6990 7.3170 113° Southeast 375 432 20,000 -867 Descending FlightAware ADS-B
Tue 02:11:00 AM 47.6225 7.7741 108° East  Level FlightAware Approximate
Tue 02:12:00 AM 47.5794 7.9685 108° East  Level FlightAware Approximate
Tue 02:13:00 AM 47.5376 8.1634 108° East  Level FlightAware Approximate
Tue 02:14:00 AM 47.4923 8.3539 102° East  Level FlightAware Approximate
Tue 02:15:00 AM 47.4500 8.5333 113° Southeast  Level FlightAware Approximate
Tue 02:16:00 AM 47.4647 8.5492 113° Southeast  Level Estimated
Tue 02:17:00 AM 47.4647 8.5492 113° Southeast  Level Estimated
Tue 02:18:00 AM 47.4647 8.5492 113° Southeast  Level Estimated
Tue 02:19:00 AM 47.4647 8.5492 113° Southeast  Level Estimated
Tue 02:20:00 AM 47.4647 8.5492 113° Southeast  Level Estimated
Tue 02:20:52 AM 47.6320 7.8960 113° Southeast 253 291 9,000  Level FlightAware ADS-B
Tue 02:21:00 AM 47.4647 8.5492 113° Southeast  Level Estimated
Tue 02:22:07 AM 47.6650 8.0210 69° East 262 302 9,000  Level FlightAware ADS-B
Tue 02:23:42 AM 47.7020 8.1600 68° East 222 255 8,000 -982 Descending FlightAware ADS-B
Tue 02:24:52 AM 47.7090 8.2560 84° East 220 253 6,300 -1,267 Descending FlightAware ADS-B
Tue 02:25:12 AM 47.6910 8.2670 158° South 205 236 6,100 -960 Descending FlightAware ADS-B
Tue 02:27:00 AM 47.5010 8.5042 140° Southeast  Level Estimated
Tue 02:28:00 AM 47.4647 8.5492 140° Southeast  Level Estimated
Tue 02:28:37 AM 47.5450 8.4370 140° Southeast 165 190 2,700  Level FlightAware ADS-B
Tue 02:29:07 AM 47.5290 8.4580 138° Southeast 149 171 2,300 -800 Descending FlightAware ADS-B
Tue 02:29:22 AM 47.5220 8.4680 136° Southeast 148 170 2,100 -857 Descending FlightAware ADS-B
Tue 02:29:42 AM 47.5110 8.4820 139° Southeast 144 166 1,800 -764 Descending FlightAware ADS-B
Tue 02:30:17 AM 47.4940 8.5050 138° Southeast 139 160 1,400 -480 Descending FlightAware ADS-B
Tue 02:30:57 AM 47.4770 8.5280 138° Southeast 140 161 1,200 -300 Descending FlightAware ADS-B

Login

Don't have an account? Register now (free) for customized features, flight alerts, and more!